TimeCST,TemperatureF,Dew PointF,Humidity,Sea Level PressureIn,VisibilityMPH,Wind Direction,Wind SpeedMPH,Gust SpeedMPH,PrecipitationIn,Events,Conditions,WindDirDegrees,DateUTC
12:15 AM,48.2,41.0,76,30.07,10.0,SSW,6.9,-,N/A,,Clear,200,2012-11-20 06:15:00
12:35 AM,48.2,41.0,76,30.06,10.0,SSW,5.8,-,N/A,,Clear,200,2012-11-20 06:35:00
12:55 AM,46.4,41.0,81,30.06,10.0,SSW,5.8,-,N/A,,Clear,200,2012-11-20 06:55:00
1:15 AM,46.4,41.0,81,30.06,7.0,SSW,4.6,-,N/A,,Clear,200,2012-11-20 07:15:00
1:35 AM,46.4,39.2,76,30.05,7.0,SSW,5.8,-,N/A,,Clear,200,2012-11-20 07:35:00
1:55 AM,46.4,39.2,76,30.06,7.0,SSW,5.8,-,N/A,,Clear,210,2012-11-20 07:55:00
2:15 AM,46.4,39.2,76,30.06,7.0,SSW,4.6,-,N/A,,Clear,200,2012-11-20 08:15:00
2:35 AM,44.6,39.2,81,30.06,5.0,SSW,4.6,-,N/A,,Haze,210,2012-11-20 08:35:00
6:15 AM,39.2,35.6,87,30.07,0.2,Calm,Calm,-,N/A,,Haze,0,2012-11-20 12:15:00
6:35 AM,39.2,35.6,87,30.08,0.2,Calm,Calm,-,N/A,,Haze,0,2012-11-20 12:35:00
6:55 AM,41.0,35.6,81,30.09,0.2,Calm,Calm,-,N/A,,Haze,0,2012-11-20 12:55:00
7:15 AM,42.8,37.4,81,30.09,0.2,Calm,Calm,-,N/A,,Haze,0,2012-11-20 13:15:00
7:35 AM,42.8,37.4,81,30.11,0.2,Calm,Calm,-,N/A,,Haze,0,2012-11-20 13:35:00
7:55 AM,42.8,37.4,81,30.11,0.2,Calm,Calm,-,N/A,,Haze,0,2012-11-20 13:55:00
8:15 AM,42.8,37.4,81,30.12,0.2,North,4.6,-,N/A,,Haze,360,2012-11-20 14:15:00
8:35 AM,42.8,37.4,81,30.12,0.2,North,5.8,-,N/A,,Haze,360,2012-11-20 14:35:00
8:55 AM,42.8,37.4,81,30.12,0.2,North,4.6,-,N/A,,Haze,10,2012-11-20 14:55:00
9:15 AM,42.8,37.4,81,30.13,0.2,North,4.6,-,N/A,,Haze,350,2012-11-20 15:15:00
9:35 AM,42.8,37.4,81,30.14,0.2,North,3.5,-,N/A,,Haze,360,2012-11-20 15:35:00
9:55 AM,44.6,39.2,81,30.13,0.2,North,4.6,-,N/A,,Haze,360,2012-11-20 15:55:00
10:15 AM,44.6,39.2,81,30.14,0.2,North,4.6,-,N/A,,Haze,360,2012-11-20 16:15:00
10:35 AM,44.6,39.2,81,30.14,0.2,North,5.8,-,N/A,,Haze,350,2012-11-20 16:35:00
10:55 AM,46.4,39.2,76,30.14,0.2,North,3.5,-,N/A,,Haze,350,2012-11-20 16:55:00
11:15 AM,46.4,41.0,81,30.14,0.2,North,4.6,-,N/A,,Haze,360,2012-11-20 17:15:00
11:35 AM,46.4,42.8,87,30.13,0.2,NNW,4.6,-,N/A,,Haze,340,2012-11-20 17:35:00
11:55 AM,46.4,42.8,87,30.13,0.8,North,5.8,-,N/A,,Haze,360,2012-11-20 17:55:00
12:15 PM,48.2,42.8,82,30.13,1.0,NNW,4.6,-,N/A,,Haze,330,2012-11-20 18:15:00
12:35 PM,48.2,42.8,82,30.13,1.2,North,3.5,-,N/A,,Haze,360,2012-11-20 18:35:00
12:55 PM,48.2,42.8,82,30.13,1.8,NNE,3.5,-,N/A,,Haze,20,2012-11-20 18:55:00
1:15 PM,48.2,42.8,82,30.14,2.0,North,3.5,-,N/A,,Haze,10,2012-11-20 19:15:00
1:35 PM,48.2,42.8,82,30.13,2.0,WNW,4.6,-,N/A,,Haze,290,2012-11-20 19:35:00
1:55 PM,48.2,42.8,82,30.13,1.8,NNW,4.6,-,N/A,,Haze,330,2012-11-20 19:55:00
2:15 PM,48.2,42.8,82,30.13,1.8,WNW,5.8,-,N/A,,Haze,290,2012-11-20 20:15:00
2:35 PM,48.2,42.8,82,30.13,1.8,NNW,4.6,-,N/A,,Haze,340,2012-11-20 20:35:00
2:55 PM,48.2,42.8,82,30.14,2.0,NNW,4.6,-,N/A,,Haze,330,2012-11-20 20:55:00
3:15 PM,48.2,42.8,82,30.14,2.0,NW,4.6,-,N/A,,Haze,310,2012-11-20 21:15:00
3:35 PM,48.2,42.8,82,30.14,1.5,WNW,6.9,-,N/A,,Haze,300,2012-11-20 21:35:00
3:55 PM,48.2,42.8,82,30.15,0.8,North,3.5,-,N/A,,Haze,350,2012-11-20 21:55:00
4:15 PM,48.2,42.8,82,30.15,0.2,NW,5.8,-,N/A,,Haze,320,2012-11-20 22:15:00
4:35 PM,48.2,42.8,82,30.16,0.2,Calm,Calm,-,N/A,,Haze,0,2012-11-20 22:35:00
4:55 PM,48.2,42.8,82,30.17,0.2,NW,4.6,-,N/A,,Haze,320,2012-11-20 22:55:00
5:15 PM,46.4,42.8,87,30.17,0.2,NNW,3.5,-,N/A,,Haze,340,2012-11-20 23:15:00
5:35 PM,46.4,41.0,81,30.17,0.2,NW,3.5,-,N/A,,Haze,320,2012-11-20 23:35:00
5:55 PM,46.4,41.0,81,30.18,0.2,Calm,Calm,-,N/A,,Haze,0,2012-11-20 23:55:00
6:15 PM,46.4,41.0,81,30.19,0.2,Calm,Calm,-,N/A,,Haze,0,2012-11-21 00:15:00
6:55 PM,46.4,41.0,81,30.19,0.2,Calm,Calm,-,N/A,,Haze,0,2012-11-21 00:55:00
7:15 PM,46.4,39.2,76,30.19,0.2,Calm,Calm,-,N/A,,Haze,0,2012-11-21 01:15:00
7:35 PM,46.4,39.2,76,30.19,0.2,Calm,Calm,-,N/A,,Haze,0,2012-11-21 01:35:00
7:55 PM,44.6,39.2,81,30.19,0.2,Calm,Calm,-,N/A,,Haze,0,2012-11-21 01:55:00
8:15 PM,44.6,39.2,81,30.20,0.2,Calm,Calm,-,N/A,,Haze,0,2012-11-21 02:15:00
8:35 PM,44.6,39.2,81,30.21,0.2,Calm,Calm,-,N/A,,Haze,0,2012-11-21 02:35:00
8:55 PM,44.6,39.2,81,30.21,0.2,Calm,Calm,-,N/A,,Haze,0,2012-11-21 02:55:00
9:15 PM,44.6,39.2,81,30.21,0.2,Calm,Calm,-,N/A,,Haze,0,2012-11-21 03:15:00
9:35 PM,44.6,39.2,81,30.21,0.2,Calm,Calm,-,N/A,,Haze,0,2012-11-21 03:35:00
9:55 PM,44.6,39.2,81,30.21,0.2,Calm,Calm,-,N/A,,Haze,0,2012-11-21 03:55:00
10:15 PM,42.8,37.4,81,30.21,0.2,Calm,Calm,-,N/A,,Haze,0,2012-11-21 04:15:00
10:35 PM,42.8,37.4,81,30.20,0.2,Calm,Calm,-,N/A,,Haze,0,2012-11-21 04:35:00
10:55 PM,42.8,37.4,81,30.20,0.2,Calm,Calm,-,N/A,,Haze,0,2012-11-21 04:55:00
11:15 PM,42.8,37.4,81,30.21,0.2,Calm,Calm,-,N/A,,Haze,0,2012-11-21 05:15:00
11:35 PM,42.8,37.4,81,30.20,0.2,Calm,Calm,-,N/A,,Haze,0,2012-11-21 05:35:00
11:55 PM,42.8,37.4,81,30.21,0.2,SW,4.6,-,N/A,,Haze,220,2012-11-21 05:55:00